sensor_id;sensor_type;location;lat;lon;timestamp;temperature;humidity
48376;DHT22;34178;50.904;11.560;2024-01-30T00:00:59;-0.10;99.90
48376;DHT22;34178;50.904;11.560;2024-01-30T00:03:24;-0.10;99.90
48376;DHT22;34178;50.904;11.560;2024-01-30T00:05:50;0.00;99.90
48376;DHT22;34178;50.904;11.560;2024-01-30T00:08:15;0.00;99.90
48376;DHT22;34178;50.904;11.560;2024-01-30T00:10:41;0.10;99.90
48376;DHT22;34178;50.904;11.560;2024-01-30T00:13:06;0.10;99.90
48376;DHT22;34178;50.904;11.560;2024-01-30T00:15:32;0.20;99.90
48376;DHT22;34178;50.904;11.560;2024-01-30T00:17:58;0.10;99.90
48376;DHT22;34178;50.904;11.560;2024-01-30T00:20:23;0.10;99.90
48376;DHT22;34178;50.904;11.560;2024-01-30T00:22:49;0.10;99.90
48376;DHT22;34178;50.904;11.560;2024-01-30T00:25:14;0.10;99.90
48376;DHT22;34178;50.904;11.560;2024-01-30T00:27:40;0.20;99.90
48376;DHT22;34178;50.904;11.560;2024-01-30T00:30:06;0.30;99.90
48376;DHT22;34178;50.904;11.560;2024-01-30T00:32:32;0.50;99.90
48376;DHT22;34178;50.904;11.560;2024-01-30T00:34:57;0.30;99.90
48376;DHT22;34178;50.904;11.560;2024-01-30T00:37:23;0.40;99.90
48376;DHT22;34178;50.904;11.560;2024-01-30T00:39:48;0.40;99.90
48376;DHT22;34178;50.904;11.560;2024-01-30T00:42:14;0.30;99.90
48376;DHT22;34178;50.904;11.560;2024-01-30T00:44:40;0.30;99.90
48376;DHT22;34178;50.904;11.560;2024-01-30T00:47:06;0.40;99.90
48376;DHT22;34178;50.904;11.560;2024-01-30T00:49:31;0.40;99.90
48376;DHT22;34178;50.904;11.560;2024-01-30T00:51:57;0.40;99.90
48376;DHT22;34178;50.904;11.560;2024-01-30T00:54:23;0.40;99.90
48376;DHT22;34178;50.904;11.560;2024-01-30T00:56:48;0.30;99.90
48376;DHT22;34178;50.904;11.560;2024-01-30T00:59:14;0.30;99.90
48376;DHT22;34178;50.904;11.560;2024-01-30T01:01:40;0.40;99.90
48376;DHT22;34178;50.904;11.560;2024-01-30T01:04:05;0.50;99.90
48376;DHT22;34178;50.904;11.560;2024-01-30T01:06:31;0.70;99.90
48376;DHT22;34178;50.904;11.560;2024-01-30T01:08:56;0.70;99.90
48376;DHT22;34178;50.904;11.560;2024-01-30T01:11:22;0.60;99.90
48376;DHT22;34178;50.904;11.560;2024-01-30T01:13:47;0.60;99.90
48376;DHT22;34178;50.904;11.560;2024-01-30T01:16:13;0.60;99.90
48376;DHT22;34178;50.904;11.560;2024-01-30T01:18:38;0.60;99.90
48376;DHT22;34178;50.904;11.560;2024-01-30T01:21:04;0.50;99.90
48376;DHT22;34178;50.904;11.560;2024-01-30T01:23:30;0.40;99.90
48376;DHT22;34178;50.904;11.560;2024-01-30T01:25:55;0.40;99.90
48376;DHT22;34178;50.904;11.560;2024-01-30T01:28:21;0.40;99.90
48376;DHT22;34178;50.904;11.560;2024-01-30T01:30:46;0.40;99.90
48376;DHT22;34178;50.904;11.560;2024-01-30T01:33:12;0.60;99.90
48376;DHT22;34178;50.904;11.560;2024-01-30T01:35:39;0.60;99.90
48376;DHT22;34178;50.904;11.560;2024-01-30T01:38:05;0.50;99.90
48376;DHT22;34178;50.904;11.560;2024-01-30T01:40:31;0.50;99.90
48376;DHT22;34178;50.904;11.560;2024-01-30T01:42:56;0.50;99.90
48376;DHT22;34178;50.904;11.560;2024-01-30T01:45:22;0.60;99.90
48376;DHT22;34178;50.904;11.560;2024-01-30T01:47:50;0.60;99.90
48376;DHT22;34178;50.904;11.560;2024-01-30T01:50:16;0.50;99.90
48376;DHT22;34178;50.904;11.560;2024-01-30T01:52:44;0.40;99.90
48376;DHT22;34178;50.904;11.560;2024-01-30T01:55:11;0.40;99.90
48376;DHT22;34178;50.904;11.560;2024-01-30T01:57:37;0.30;99.90
48376;DHT22;34178;50.904;11.560;2024-01-30T02:00:03;0.30;99.90
48376;DHT22;34178;50.904;11.560;2024-01-30T02:02:30;0.30;99.90
48376;DHT22;34178;50.904;11.560;2024-01-30T02:04:57;0.30;99.90
48376;DHT22;34178;50.904;11.560;2024-01-30T02:07:22;0.20;99.90
48376;DHT22;34178;50.904;11.560;2024-01-30T02:09:48;0.30;99.90
48376;DHT22;34178;50.904;11.560;2024-01-30T02:12:13;0.30;99.90
48376;DHT22;34178;50.904;11.560;2024-01-30T02:14:45;0.20;99.90
48376;DHT22;34178;50.904;11.560;2024-01-30T02:17:12;0.20;99.90
48376;DHT22;34178;50.904;11.560;2024-01-30T02:19:37;0.20;99.90
48376;DHT22;34178;50.904;11.560;2024-01-30T02:22:03;0.20;99.90
48376;DHT22;34178;50.904;11.560;2024-01-30T02:24:29;0.10;99.90
48376;DHT22;34178;50.904;11.560;2024-01-30T02:26:55;0.10;99.90
48376;DHT22;34178;50.904;11.560;2024-01-30T02:29:20;0.10;99.90
48376;DHT22;34178;50.904;11.560;2024-01-30T02:31:46;0.00;99.90
48376;DHT22;34178;50.904;11.560;2024-01-30T02:34:11;0.00;99.90
48376;DHT22;34178;50.904;11.560;2024-01-30T02:36:37;-0.10;99.90
48376;DHT22;34178;50.904;11.560;2024-01-30T02:39:03;-0.10;99.90
48376;DHT22;34178;50.904;11.560;2024-01-30T02:41:28;-0.10;99.90
48376;DHT22;34178;50.904;11.560;2024-01-30T02:43:54;0.10;99.90
48376;DHT22;34178;50.904;11.560;2024-01-30T02:46:19;0.10;99.90
48376;DHT22;34178;50.904;11.560;2024-01-30T02:48:45;0.00;99.90
48376;DHT22;34178;50.904;11.560;2024-01-30T02:51:11;-0.10;99.90
48376;DHT22;34178;50.904;11.560;2024-01-30T02:53:37;-0.10;99.90
48376;DHT22;34178;50.904;11.560;2024-01-30T02:56:02;-0.10;99.90
48376;DHT22;34178;50.904;11.560;2024-01-30T02:58:28;-0.10;99.90
48376;DHT22;34178;50.904;11.560;2024-01-30T03:00:53;0.00;99.90
48376;DHT22;34178;50.904;11.560;2024-01-30T03:03:19;-0.10;99.90
48376;DHT22;34178;50.904;11.560;2024-01-30T03:05:45;-0.10;99.90
48376;DHT22;34178;50.904;11.560;2024-01-30T03:08:10;-0.20;99.90
48376;DHT22;34178;50.904;11.560;2024-01-30T03:10:36;-0.20;99.90
48376;DHT22;34178;50.904;11.560;2024-01-30T03:13:01;-0.30;99.90
48376;DHT22;34178;50.904;11.560;2024-01-30T03:15:27;-0.30;99.90
48376;DHT22;34178;50.904;11.560;2024-01-30T03:17:53;-0.20;99.90
48376;DHT22;34178;50.904;11.560;2024-01-30T03:20:19;-0.30;99.90
48376;DHT22;34178;50.904;11.560;2024-01-30T03:22:44;-0.30;99.90
48376;DHT22;34178;50.904;11.560;2024-01-30T03:25:10;-0.30;99.90
48376;DHT22;34178;50.904;11.560;2024-01-30T03:27:35;-0.40;99.90
48376;DHT22;34178;50.904;11.560;2024-01-30T03:30:01;-0.40;99.90
48376;DHT22;34178;50.904;11.560;2024-01-30T03:32:27;-0.50;99.90
48376;DHT22;34178;50.904;11.560;2024-01-30T03:34:53;-0.50;99.90
48376;DHT22;34178;50.904;11.560;2024-01-30T03:37:18;-0.40;99.90
48376;DHT22;34178;50.904;11.560;2024-01-30T03:39:44;-0.40;99.90
48376;DHT22;34178;50.904;11.560;2024-01-30T03:42:09;-0.40;99.90
48376;DHT22;34178;50.904;11.560;2024-01-30T03:44:35;-0.40;99.90
48376;DHT22;34178;50.904;11.560;2024-01-30T03:47:00;-0.40;99.90
48376;DHT22;34178;50.904;11.560;2024-01-30T03:49:26;-0.50;99.90
48376;DHT22;34178;50.904;11.560;2024-01-30T03:51:51;-0.60;99.90
48376;DHT22;34178;50.904;11.560;2024-01-30T03:54:17;-0.60;99.90
48376;DHT22;34178;50.904;11.560;2024-01-30T03:56:43;-0.60;99.90
48376;DHT22;34178;50.904;11.560;2024-01-30T03:59:08;-0.60;99.90
48376;DHT22;34178;50.904;11.560;2024-01-30T04:01:34;-0.60;99.90
48376;DHT22;34178;50.904;11.560;2024-01-30T04:03:59;-0.60;99.90
48376;DHT22;34178;50.904;11.560;2024-01-30T04:06:25;-0.60;99.90
48376;DHT22;34178;50.904;11.560;2024-01-30T04:08:51;-0.60;99.90
48376;DHT22;34178;50.904;11.560;2024-01-30T04:11:18;-0.60;99.90
48376;DHT22;34178;50.904;11.560;2024-01-30T04:13:43;-0.50;99.90
48376;DHT22;34178;50.904;11.560;2024-01-30T04:16:18;-0.50;99.90
48376;DHT22;34178;50.904;11.560;2024-01-30T04:18:44;-0.40;99.90
48376;DHT22;34178;50.904;11.560;2024-01-30T04:21:09;-0.40;99.90
48376;DHT22;34178;50.904;11.560;2024-01-30T04:23:35;-0.40;99.90
48376;DHT22;34178;50.904;11.560;2024-01-30T04:26:00;-0.40;99.90
48376;DHT22;34178;50.904;11.560;2024-01-30T04:28:26;-0.40;99.90
48376;DHT22;34178;50.904;11.560;2024-01-30T04:30:51;-0.40;99.90
48376;DHT22;34178;50.904;11.560;2024-01-30T04:33:17;-0.40;99.90
48376;DHT22;34178;50.904;11.560;2024-01-30T04:35:43;-0.50;99.90
48376;DHT22;34178;50.904;11.560;2024-01-30T04:38:09;-0.50;99.90
48376;DHT22;34178;50.904;11.560;2024-01-30T04:40:34;-0.50;99.90
48376;DHT22;34178;50.904;11.560;2024-01-30T04:43:00;-0.60;99.90
48376;DHT22;34178;50.904;11.560;2024-01-30T04:45:25;-0.60;99.90
48376;DHT22;34178;50.904;11.560;2024-01-30T04:47:51;-0.70;99.90
48376;DHT22;34178;50.904;11.560;2024-01-30T04:50:16;-0.70;99.90
48376;DHT22;34178;50.904;11.560;2024-01-30T04:52:42;-0.50;99.90
48376;DHT22;34178;50.904;11.560;2024-01-30T04:55:07;-0.60;99.90
48376;DHT22;34178;50.904;11.560;2024-01-30T04:57:33;-0.70;99.90
48376;DHT22;34178;50.904;11.560;2024-01-30T04:59:59;-0.70;99.90
48376;DHT22;34178;50.904;11.560;2024-01-30T05:02:24;-0.70;99.90
48376;DHT22;34178;50.904;11.560;2024-01-30T05:04:50;-0.80;99.90
48376;DHT22;34178;50.904;11.560;2024-01-30T05:07:15;-0.80;99.90
48376;DHT22;34178;50.904;11.560;2024-01-30T05:09:41;-0.90;99.90
48376;DHT22;34178;50.904;11.560;2024-01-30T05:12:07;-0.90;99.90
48376;DHT22;34178;50.904;11.560;2024-01-30T05:14:32;-0.70;99.90
48376;DHT22;34178;50.904;11.560;2024-01-30T05:16:58;-0.80;99.90
48376;DHT22;34178;50.904;11.560;2024-01-30T05:19:23;-0.80;99.90
48376;DHT22;34178;50.904;11.560;2024-01-30T05:21:49;-0.70;99.90
48376;DHT22;34178;50.904;11.560;2024-01-30T05:24:15;-0.60;99.90
48376;DHT22;34178;50.904;11.560;2024-01-30T05:26:40;-0.60;99.90
48376;DHT22;34178;50.904;11.560;2024-01-30T05:29:06;-0.60;99.90
48376;DHT22;34178;50.904;11.560;2024-01-30T05:31:33;-0.70;99.90
48376;DHT22;34178;50.904;11.560;2024-01-30T05:33:59;-0.80;99.90
48376;DHT22;34178;50.904;11.560;2024-01-30T05:36:25;-0.90;99.90
48376;DHT22;34178;50.904;11.560;2024-01-30T05:38:50;-0.90;99.90
48376;DHT22;34178;50.904;11.560;2024-01-30T05:41:16;-0.70;99.90
48376;DHT22;34178;50.904;11.560;2024-01-30T05:43:42;-0.80;99.90
48376;DHT22;34178;50.904;11.560;2024-01-30T05:46:07;-0.80;99.90
48376;DHT22;34178;50.904;11.560;2024-01-30T05:48:33;-0.70;99.90
48376;DHT22;34178;50.904;11.560;2024-01-30T05:51:00;-0.80;99.90
48376;DHT22;34178;50.904;11.560;2024-01-30T05:53:26;-0.90;99.90
48376;DHT22;34178;50.904;11.560;2024-01-30T05:55:52;-1.00;99.90
48376;DHT22;34178;50.904;11.560;2024-01-30T05:58:17;-1.00;99.90
48376;DHT22;34178;50.904;11.560;2024-01-30T06:00:43;-1.00;99.90
48376;DHT22;34178;50.904;11.560;2024-01-30T06:03:08;-1.00;99.90
48376;DHT22;34178;50.904;11.560;2024-01-30T06:05:34;-1.00;99.90
48376;DHT22;34178;50.904;11.560;2024-01-30T06:07:59;-1.00;99.90
48376;DHT22;34178;50.904;11.560;2024-01-30T06:10:25;-1.10;99.90
48376;DHT22;34178;50.904;11.560;2024-01-30T06:12:50;-1.10;99.90
48376;DHT22;34178;50.904;11.560;2024-01-30T06:15:16;-1.10;99.90
48376;DHT22;34178;50.904;11.560;2024-01-30T06:17:42;-0.90;99.90
48376;DHT22;34178;50.904;11.560;2024-01-30T06:20:07;-1.00;99.90
48376;DHT22;34178;50.904;11.560;2024-01-30T06:22:33;-1.10;99.90
48376;DHT22;34178;50.904;11.560;2024-01-30T06:24:58;-1.10;99.90
48376;DHT22;34178;50.904;11.560;2024-01-30T06:27:24;-1.00;99.90
48376;DHT22;34178;50.904;11.560;2024-01-30T06:29:49;-1.00;99.90
48376;DHT22;34178;50.904;11.560;2024-01-30T06:32:15;-1.10;99.90
48376;DHT22;34178;50.904;11.560;2024-01-30T06:34:41;-1.10;99.90
48376;DHT22;34178;50.904;11.560;2024-01-30T06:37:06;-1.10;99.90
48376;DHT22;34178;50.904;11.560;2024-01-30T06:39:32;-1.10;99.90
48376;DHT22;34178;50.904;11.560;2024-01-30T06:41:57;-1.10;99.90
48376;DHT22;34178;50.904;11.560;2024-01-30T06:44:23;-1.00;99.90
48376;DHT22;34178;50.904;11.560;2024-01-30T06:46:48;-1.00;99.90
48376;DHT22;34178;50.904;11.560;2024-01-30T06:49:14;-1.00;99.90
48376;DHT22;34178;50.904;11.560;2024-01-30T06:51:39;-1.10;99.90
48376;DHT22;34178;50.904;11.560;2024-01-30T06:54:05;-1.10;99.90
48376;DHT22;34178;50.904;11.560;2024-01-30T06:56:30;-1.20;99.90
48376;DHT22;34178;50.904;11.560;2024-01-30T06:58:56;-1.10;99.90
48376;DHT22;34178;50.904;11.560;2024-01-30T07:01:29;-1.10;99.90
48376;DHT22;34178;50.904;11.560;2024-01-30T07:03:55;-1.00;99.90
48376;DHT22;34178;50.904;11.560;2024-01-30T07:06:20;-1.00;99.90
48376;DHT22;34178;50.904;11.560;2024-01-30T07:08:47;-0.90;99.90
48376;DHT22;34178;50.904;11.560;2024-01-30T07:11:22;-0.80;99.90
48376;DHT22;34178;50.904;11.560;2024-01-30T07:13:50;-0.70;99.90
48376;DHT22;34178;50.904;11.560;2024-01-30T07:16:16;-0.70;99.90
48376;DHT22;34178;50.904;11.560;2024-01-30T07:18:41;-0.80;99.90
48376;DHT22;34178;50.904;11.560;2024-01-30T07:21:07;-0.70;99.90
48376;DHT22;34178;50.904;11.560;2024-01-30T07:23:32;-0.50;99.90
48376;DHT22;34178;50.904;11.560;2024-01-30T07:26:00;-0.40;99.90
48376;DHT22;34178;50.904;11.560;2024-01-30T07:28:26;-0.50;99.90
48376;DHT22;34178;50.904;11.560;2024-01-30T07:30:51;-0.50;99.90
48376;DHT22;34178;50.904;11.560;2024-01-30T07:33:17;-0.40;99.90
48376;DHT22;34178;50.904;11.560;2024-01-30T07:35:43;-0.20;99.90
48376;DHT22;34178;50.904;11.560;2024-01-30T07:38:08;-0.10;99.90
48376;DHT22;34178;50.904;11.560;2024-01-30T07:40:34;0.00;99.90
48376;DHT22;34178;50.904;11.560;2024-01-30T07:42:59;0.10;99.90
48376;DHT22;34178;50.904;11.560;2024-01-30T07:45:26;0.20;99.90
48376;DHT22;34178;50.904;11.560;2024-01-30T07:47:53;0.30;99.90
48376;DHT22;34178;50.904;11.560;2024-01-30T07:50:18;0.30;99.90
48376;DHT22;34178;50.904;11.560;2024-01-30T07:52:44;0.40;99.90
48376;DHT22;34178;50.904;11.560;2024-01-30T07:55:10;0.40;99.90
48376;DHT22;34178;50.904;11.560;2024-01-30T07:57:38;0.40;99.90
48376;DHT22;34178;50.904;11.560;2024-01-30T08:00:03;0.50;99.90
48376;DHT22;34178;50.904;11.560;2024-01-30T08:02:31;0.50;99.90
48376;DHT22;34178;50.904;11.560;2024-01-30T08:04:56;0.50;99.90
48376;DHT22;34178;50.904;11.560;2024-01-30T08:07:22;0.50;99.90
48376;DHT22;34178;50.904;11.560;2024-01-30T08:09:47;0.60;99.90
48376;DHT22;34178;50.904;11.560;2024-01-30T08:12:13;0.70;99.90
48376;DHT22;34178;50.904;11.560;2024-01-30T08:14:39;0.70;99.90
48376;DHT22;34178;50.904;11.560;2024-01-30T08:17:06;0.80;99.90
48376;DHT22;34178;50.904;11.560;2024-01-30T08:19:33;0.80;99.90
48376;DHT22;34178;50.904;11.560;2024-01-30T08:21:58;1.00;99.90
48376;DHT22;34178;50.904;11.560;2024-01-30T08:24:24;1.20;99.90
48376;DHT22;34178;50.904;11.560;2024-01-30T08:26:49;1.30;99.90
48376;DHT22;34178;50.904;11.560;2024-01-30T08:29:15;1.40;99.90
48376;DHT22;34178;50.904;11.560;2024-01-30T08:31:40;1.50;99.90
48376;DHT22;34178;50.904;11.560;2024-01-30T08:34:06;1.50;99.90
48376;DHT22;34178;50.904;11.560;2024-01-30T08:36:31;1.50;99.90
48376;DHT22;34178;50.904;11.560;2024-01-30T08:38:57;1.70;99.90
48376;DHT22;34178;50.904;11.560;2024-01-30T08:41:22;1.80;99.90
48376;DHT22;34178;50.904;11.560;2024-01-30T08:43:48;1.80;99.90
48376;DHT22;34178;50.904;11.560;2024-01-30T08:46:17;1.90;99.90
48376;DHT22;34178;50.904;11.560;2024-01-30T08:48:42;1.90;99.90
48376;DHT22;34178;50.904;11.560;2024-01-30T08:51:08;2.10;99.90
48376;DHT22;34178;50.904;11.560;2024-01-30T08:53:34;2.40;99.90
48376;DHT22;34178;50.904;11.560;2024-01-30T08:55:59;2.50;99.90
48376;DHT22;34178;50.904;11.560;2024-01-30T08:58:25;2.70;99.90
48376;DHT22;34178;50.904;11.560;2024-01-30T09:00:51;2.80;99.90
48376;DHT22;34178;50.904;11.560;2024-01-30T09:03:18;3.00;99.90
48376;DHT22;34178;50.904;11.560;2024-01-30T09:05:43;3.20;99.90
48376;DHT22;34178;50.904;11.560;2024-01-30T09:08:09;3.30;99.90
48376;DHT22;34178;50.904;11.560;2024-01-30T09:10:35;3.10;99.90
48376;DHT22;34178;50.904;11.560;2024-01-30T09:13:01;3.10;99.90
48376;DHT22;34178;50.904;11.560;2024-01-30T09:15:26;3.20;99.90
48376;DHT22;34178;50.904;11.560;2024-01-30T09:17:52;3.30;99.90
48376;DHT22;34178;50.904;11.560;2024-01-30T09:20:17;3.40;99.90
48376;DHT22;34178;50.904;11.560;2024-01-30T09:22:43;3.60;99.90
48376;DHT22;34178;50.904;11.560;2024-01-30T09:25:09;3.60;99.90
48376;DHT22;34178;50.904;11.560;2024-01-30T09:27:35;3.60;99.90
48376;DHT22;34178;50.904;11.560;2024-01-30T09:30:00;3.70;99.90
48376;DHT22;34178;50.904;11.560;2024-01-30T09:32:26;3.90;99.90
48376;DHT22;34178;50.904;11.560;2024-01-30T09:34:51;4.10;99.90
48376;DHT22;34178;50.904;11.560;2024-01-30T09:37:17;4.30;99.90
48376;DHT22;34178;50.904;11.560;2024-01-30T09:39:43;4.50;99.90
48376;DHT22;34178;50.904;11.560;2024-01-30T09:42:15;4.60;99.90
48376;DHT22;34178;50.904;11.560;2024-01-30T09:44:43;4.80;99.90
48376;DHT22;34178;50.904;11.560;2024-01-30T09:47:09;4.90;99.90
48376;DHT22;34178;50.904;11.560;2024-01-30T09:49:35;5.10;99.90
48376;DHT22;34178;50.904;11.560;2024-01-30T09:52:03;5.10;99.90
48376;DHT22;34178;50.904;11.560;2024-01-30T09:54:30;5.10;99.90
48376;DHT22;34178;50.904;11.560;2024-01-30T09:56:57;5.30;99.90
48376;DHT22;34178;50.904;11.560;2024-01-30T09:59:22;5.40;99.90
48376;DHT22;34178;50.904;11.560;2024-01-30T10:01:48;5.60;99.90
48376;DHT22;34178;50.904;11.560;2024-01-30T10:04:15;5.70;99.90
48376;DHT22;34178;50.904;11.560;2024-01-30T10:06:40;5.70;99.90
48376;DHT22;34178;50.904;11.560;2024-01-30T10:09:06;5.90;99.90
48376;DHT22;34178;50.904;11.560;2024-01-30T10:11:32;5.80;99.90
48376;DHT22;34178;50.904;11.560;2024-01-30T10:13:57;5.80;99.90
48376;DHT22;34178;50.904;11.560;2024-01-30T10:16:23;5.80;99.90
48376;DHT22;34178;50.904;11.560;2024-01-30T10:18:49;6.00;99.90
48376;DHT22;34178;50.904;11.560;2024-01-30T10:21:14;6.00;99.90
48376;DHT22;34178;50.904;11.560;2024-01-30T10:23:40;6.20;99.90
48376;DHT22;34178;50.904;11.560;2024-01-30T10:26:07;6.40;99.90
48376;DHT22;34178;50.904;11.560;2024-01-30T10:28:32;6.60;99.90
48376;DHT22;34178;50.904;11.560;2024-01-30T10:30:58;6.70;99.90
48376;DHT22;34178;50.904;11.560;2024-01-30T10:33:25;6.90;99.90
48376;DHT22;34178;50.904;11.560;2024-01-30T10:35:51;7.10;99.90
48376;DHT22;34178;50.904;11.560;2024-01-30T10:38:16;7.20;99.90
48376;DHT22;34178;50.904;11.560;2024-01-30T10:40:45;7.40;99.90
48376;DHT22;34178;50.904;11.560;2024-01-30T10:43:10;7.70;99.90
48376;DHT22;34178;50.904;11.560;2024-01-30T10:45:36;7.90;99.90
48376;DHT22;34178;50.904;11.560;2024-01-30T10:48:05;8.20;99.90
48376;DHT22;34178;50.904;11.560;2024-01-30T10:50:30;8.50;99.90
48376;DHT22;34178;50.904;11.560;2024-01-30T10:52:58;8.80;99.90
48376;DHT22;34178;50.904;11.560;2024-01-30T10:55:25;8.90;99.90
48376;DHT22;34178;50.904;11.560;2024-01-30T10:57:53;9.10;99.90
48376;DHT22;34178;50.904;11.560;2024-01-30T11:00:19;9.30;99.90
48376;DHT22;34178;50.904;11.560;2024-01-30T11:02:48;9.50;99.60
48376;DHT22;34178;50.904;11.560;2024-01-30T11:05:14;9.50;99.00
48376;DHT22;34178;50.904;11.560;2024-01-30T11:07:42;9.50;99.80
48376;DHT22;34178;50.904;11.560;2024-01-30T11:10:08;9.50;99.40
48376;DHT22;34178;50.904;11.560;2024-01-30T11:12:40;9.70;99.90
48376;DHT22;34178;50.904;11.560;2024-01-30T11:15:14;9.90;99.20
48376;DHT22;34178;50.904;11.560;2024-01-30T11:17:58;10.00;99.30
48376;DHT22;34178;50.904;11.560;2024-01-30T11:20:30;9.90;98.90
48376;DHT22;34178;50.904;11.560;2024-01-30T11:23:01;9.80;99.20
48376;DHT22;34178;50.904;11.560;2024-01-30T11:25:31;9.80;99.70
48376;DHT22;34178;50.904;11.560;2024-01-30T11:27:57;10.00;99.30
48376;DHT22;34178;50.904;11.560;2024-01-30T11:35:26;10.40;99.00
48376;DHT22;34178;50.904;11.560;2024-01-30T11:37:51;10.70;98.40
48376;DHT22;34178;50.904;11.560;2024-01-30T11:40:17;10.90;97.80
48376;DHT22;34178;50.904;11.560;2024-01-30T11:42:44;11.30;98.10
48376;DHT22;34178;50.904;11.560;2024-01-30T11:45:10;11.40;97.50
48376;DHT22;34178;50.904;11.560;2024-01-30T11:47:36;11.60;97.30
48376;DHT22;34178;50.904;11.560;2024-01-30T11:50:03;11.80;97.30
48376;DHT22;34178;50.904;11.560;2024-01-30T11:52:31;12.70;96.20
48376;DHT22;34178;50.904;11.560;2024-01-30T11:54:58;13.00;95.70
48376;DHT22;34178;50.904;11.560;2024-01-30T11:57:23;13.20;95.60
48376;DHT22;34178;50.904;11.560;2024-01-30T11:59:49;13.80;94.40
48376;DHT22;34178;50.904;11.560;2024-01-30T12:02:17;13.90;94.10
48376;DHT22;34178;50.904;11.560;2024-01-30T12:04:43;14.20;94.50
48376;DHT22;34178;50.904;11.560;2024-01-30T12:07:08;14.60;93.40
48376;DHT22;34178;50.904;11.560;2024-01-30T12:09:34;15.40;92.50
48376;DHT22;34178;50.904;11.560;2024-01-30T12:11:59;15.60;92.10
48376;DHT22;34178;50.904;11.560;2024-01-30T12:14:25;16.10;91.60
48376;DHT22;34178;50.904;11.560;2024-01-30T12:16:51;16.40;90.60
48376;DHT22;34178;50.904;11.560;2024-01-30T12:19:23;16.10;90.50
48376;DHT22;34178;50.904;11.560;2024-01-30T12:21:56;15.90;91.30
48376;DHT22;34178;50.904;11.560;2024-01-30T12:24:22;15.60;90.90
48376;DHT22;34178;50.904;11.560;2024-01-30T12:26:47;14.90;91.80
48376;DHT22;34178;50.904;11.560;2024-01-30T12:29:14;15.70;91.10
48376;DHT22;34178;50.904;11.560;2024-01-30T12:31:41;16.20;89.90
48376;DHT22;34178;50.904;11.560;2024-01-30T12:34:07;16.40;90.50
48376;DHT22;34178;50.904;11.560;2024-01-30T12:36:33;16.50;90.40
48376;DHT22;34178;50.904;11.560;2024-01-30T12:38:59;16.50;90.10
48376;DHT22;34178;50.904;11.560;2024-01-30T12:41:25;16.10;89.70
48376;DHT22;34178;50.904;11.560;2024-01-30T12:43:54;16.00;90.00
48376;DHT22;34178;50.904;11.560;2024-01-30T12:46:20;15.50;90.70
48376;DHT22;34178;50.904;11.560;2024-01-30T12:48:45;15.10;91.10
48376;DHT22;34178;50.904;11.560;2024-01-30T12:51:11;14.70;91.90
48376;DHT22;34178;50.904;11.560;2024-01-30T12:53:36;14.60;92.00
48376;DHT22;34178;50.904;11.560;2024-01-30T12:56:02;15.50;91.40
48376;DHT22;34178;50.904;11.560;2024-01-30T12:58:28;15.40;91.10
48376;DHT22;34178;50.904;11.560;2024-01-30T13:00:53;15.00;91.50
48376;DHT22;34178;50.904;11.560;2024-01-30T13:03:19;14.80;91.80
48376;DHT22;34178;50.904;11.560;2024-01-30T13:05:45;14.60;91.90
48376;DHT22;34178;50.904;11.560;2024-01-30T13:08:10;14.90;91.70
48376;DHT22;34178;50.904;11.560;2024-01-30T13:10:36;15.20;91.30
48376;DHT22;34178;50.904;11.560;2024-01-30T13:13:01;14.90;91.50
48376;DHT22;34178;50.904;11.560;2024-01-30T13:15:27;14.30;91.80
48376;DHT22;34178;50.904;11.560;2024-01-30T13:17:53;13.70;92.60
48376;DHT22;34178;50.904;11.560;2024-01-30T13:20:19;13.40;93.20
48376;DHT22;34178;50.904;11.560;2024-01-30T13:22:47;13.00;92.80
48376;DHT22;34178;50.904;11.560;2024-01-30T13:25:13;12.80;93.90
48376;DHT22;34178;50.904;11.560;2024-01-30T13:27:38;12.60;94.80
48376;DHT22;34178;50.904;11.560;2024-01-30T13:30:04;12.30;94.80
48376;DHT22;34178;50.904;11.560;2024-01-30T13:32:30;11.90;95.40
48376;DHT22;34178;50.904;11.560;2024-01-30T13:34:55;11.70;95.30
48376;DHT22;34178;50.904;11.560;2024-01-30T13:37:22;11.60;95.70
48376;DHT22;34178;50.904;11.560;2024-01-30T13:39:47;11.60;96.00
48376;DHT22;34178;50.904;11.560;2024-01-30T13:42:13;11.70;95.80
48376;DHT22;34178;50.904;11.560;2024-01-30T13:44:38;11.80;95.90
48376;DHT22;34178;50.904;11.560;2024-01-30T13:47:04;11.70;95.00
48376;DHT22;34178;50.904;11.560;2024-01-30T13:49:30;11.70;95.20
48376;DHT22;34178;50.904;11.560;2024-01-30T13:51:55;11.70;94.90
48376;DHT22;34178;50.904;11.560;2024-01-30T13:54:21;11.70;95.70
48376;DHT22;34178;50.904;11.560;2024-01-30T13:56:46;11.80;95.90
48376;DHT22;34178;50.904;11.560;2024-01-30T13:59:12;11.70;96.00
48376;DHT22;34178;50.904;11.560;2024-01-30T14:01:37;11.60;95.60
48376;DHT22;34178;50.904;11.560;2024-01-30T14:04:03;11.60;96.10
48376;DHT22;34178;50.904;11.560;2024-01-30T14:06:28;11.50;96.30
48376;DHT22;34178;50.904;11.560;2024-01-30T14:08:54;11.50;97.00
48376;DHT22;34178;50.904;11.560;2024-01-30T14:11:20;11.30;96.40
48376;DHT22;34178;50.904;11.560;2024-01-30T14:13:46;11.30;96.70
48376;DHT22;34178;50.904;11.560;2024-01-30T14:16:11;11.20;97.00
48376;DHT22;34178;50.904;11.560;2024-01-30T14:18:37;11.20;97.00
48376;DHT22;34178;50.904;11.560;2024-01-30T14:21:02;11.10;97.00
48376;DHT22;34178;50.904;11.560;2024-01-30T14:23:28;11.00;97.10
48376;DHT22;34178;50.904;11.560;2024-01-30T14:25:53;11.00;97.40
48376;DHT22;34178;50.904;11.560;2024-01-30T14:28:19;10.90;97.20
48376;DHT22;34178;50.904;11.560;2024-01-30T14:30:45;10.90;97.60
48376;DHT22;34178;50.904;11.560;2024-01-30T14:33:10;10.90;97.80
48376;DHT22;34178;50.904;11.560;2024-01-30T14:35:37;10.80;97.80
48376;DHT22;34178;50.904;11.560;2024-01-30T14:38:02;10.70;97.70
48376;DHT22;34178;50.904;11.560;2024-01-30T14:40:30;10.60;97.90
48376;DHT22;34178;50.904;11.560;2024-01-30T14:42:56;10.50;98.20
48376;DHT22;34178;50.904;11.560;2024-01-30T14:45:21;10.50;97.90
48376;DHT22;34178;50.904;11.560;2024-01-30T14:47:47;10.40;98.20
48376;DHT22;34178;50.904;11.560;2024-01-30T14:50:13;10.40;98.30
48376;DHT22;34178;50.904;11.560;2024-01-30T14:52:38;10.30;99.00
48376;DHT22;34178;50.904;11.560;2024-01-30T14:55:05;10.20;98.60
48376;DHT22;34178;50.904;11.560;2024-01-30T14:57:31;10.10;99.40
48376;DHT22;34178;50.904;11.560;2024-01-30T14:59:56;10.10;99.90
48376;DHT22;34178;50.904;11.560;2024-01-30T15:02:22;10.00;99.80
48376;DHT22;34178;50.904;11.560;2024-01-30T15:04:47;9.90;99.30
48376;DHT22;34178;50.904;11.560;2024-01-30T15:07:13;9.90;99.60
48376;DHT22;34178;50.904;11.560;2024-01-30T15:09:39;9.90;99.10
48376;DHT22;34178;50.904;11.560;2024-01-30T15:12:04;9.90;99.60
48376;DHT22;34178;50.904;11.560;2024-01-30T15:14:30;9.90;99.90
48376;DHT22;34178;50.904;11.560;2024-01-30T15:16:55;9.90;99.90
48376;DHT22;34178;50.904;11.560;2024-01-30T15:19:21;9.80;99.50